Time;durP1;ratioP1;P1;durP2;ratioP2;P2;SDS_P1;SDS_P2;PMS_P1;PMS_P2;Temp;Humidity;BMP_temperature;BMP_pressure;BME280_temperature;BME280_humidity;BME280_pressure;Samples;Min_cycle;Max_cycle;Signal;HPM_P1;HPM_P2
2023/06/22 00:02:26;;;;;;;0.70;0.70;;;;;;;31.15;36.25;101797.97;5052138;27;96693;-77
2023/06/22 00:04:52;;;;;;;0.93;0.75;;;;;;;31.16;36.25;101801.59;5056954;27;96681;-77
2023/06/22 00:07:19;;;;;;;0.93;0.80;;;;;;;31.15;36.21;101797.97;5060021;27;96691;-77
2023/06/22 00:09:46;;;;;;;1.00;0.90;;;;;;;31.15;36.13;101795.19;5058006;27;96836;-77
2023/06/22 00:12:12;;;;;;;1.02;0.80;;;;;;;31.15;36.03;101797.13;5056645;27;97101;-77
2023/06/22 00:14:39;;;;;;;1.10;0.70;;;;;;;31.14;36.28;101790.69;5039203;27;96857;-77
2023/06/22 00:17:05;;;;;;;1.08;0.82;;;;;;;31.14;36.43;101796.25;5036789;27;98924;-77
2023/06/22 00:19:35;;;;;;;0.98;0.77;;;;;;;31.16;36.50;101801.59;5059518;27;97269;-77
2023/06/22 00:22:03;;;;;;;0.98;0.82;;;;;;;31.15;36.17;101805.44;5057776;27;97239;-77
2023/06/22 00:24:30;;;;;;;0.93;0.77;;;;;;;31.14;36.32;101796.25;5054372;27;97153;-77
2023/06/22 00:26:56;;;;;;;1.10;0.75;;;;;;;31.14;36.10;101803.72;5058584;27;96920;-77
2023/06/22 00:29:23;;;;;;;0.70;0.70;;;;;;;31.14;36.14;101798.16;5057196;27;99125;-77
2023/06/22 00:31:51;;;;;;;0.70;0.70;;;;;;;31.14;36.09;101806.50;5060789;27;97184;-77
2023/06/22 00:34:18;;;;;;;0.82;0.73;;;;;;;31.14;36.14;101795.41;5046324;27;96861;-77
2023/06/22 00:36:44;;;;;;;0.80;0.68;;;;;;;31.14;36.26;101798.16;5044536;27;99041;-77
2023/06/22 00:39:11;;;;;;;0.93;0.80;;;;;;;31.14;36.17;101798.16;5062632;27;97873;-77
2023/06/22 00:41:38;;;;;;;1.08;0.85;;;;;;;31.14;36.20;101800.94;5061235;27;96626;-77
2023/06/22 00:44:06;;;;;;;1.02;0.90;;;;;;;31.13;35.99;101804.78;5058982;27;96864;-77
2023/06/22 00:46:33;;;;;;;0.90;0.82;;;;;;;31.14;36.19;101803.72;5042907;27;99123;-77
2023/06/22 00:49:00;;;;;;;1.17;0.68;;;;;;;31.14;36.31;101800.94;5043012;27;97806;-78
2023/06/22 00:51:27;;;;;;;0.90;0.80;;;;;;;31.14;36.33;101792.63;5056669;27;96839;-78
2023/06/22 00:53:54;;;;;;;1.15;0.80;;;;;;;31.13;36.08;101790.91;5060495;27;96666;-77
2023/06/22 00:56:24;;;;;;;1.35;0.93;;;;;;;31.13;36.33;101796.47;5060279;27;97447;-77
2023/06/22 00:58:52;;;;;;;0.85;0.70;;;;;;;31.12;36.35;101790.06;5043756;27;98550;-77
2023/06/22 01:01:23;;;;;;;1.45;0.77;;;;;;;31.12;36.07;101790.06;5059694;27;96802;-77
2023/06/22 01:03:51;;;;;;;1.48;0.90;;;;;;;31.12;36.20;101781.75;5060676;27;96826;-77
2023/06/22 01:06:38;;;;;;;1.00;0.90;;;;;;;31.13;36.32;101785.38;5040669;27;96912;-77
2023/06/22 01:09:27;;;;;;;0.93;0.52;;;;;;;31.11;36.17;101780.03;5058942;27;97644;-77
2023/06/22 01:11:59;;;;;;;1.00;0.90;;;;;;;31.10;36.20;101775.56;5060535;27;96750;-77
2023/06/22 01:14:58;;;;;;;1.08;0.82;;;;;;;31.10;36.30;101780.25;5060056;27;97002;-77
2023/06/22 01:17:26;;;;;;;0.85;0.70;;;;;;;31.09;36.21;101775.78;5013712;27;98135;-77
2023/06/22 01:19:57;;;;;;;1.00;0.80;;;;;;;31.09;36.08;101779.41;5058567;27;100287;-78
2023/06/22 01:22:29;;;;;;;0.90;0.80;;;;;;;31.09;36.16;101776.63;5059210;27;96921;-77
2023/06/22 01:25:20;;;;;;;0.80;0.77;;;;;;;31.10;36.04;101777.50;5058339;27;97262;-77
2023/06/22 01:28:14;;;;;;;1.42;0.93;;;;;;;31.09;36.39;101775.78;4991445;27;99598;-77
2023/06/22 01:30:43;;;;;;;1.00;0.85;;;;;;;31.08;35.94;101771.31;5044156;27;97636;-78
2023/06/22 01:33:12;;;;;;;1.60;0.98;;;;;;;31.08;36.19;101777.72;5054531;27;96839;-78
2023/06/22 01:35:40;;;;;;;0.90;0.73;;;;;;;31.09;36.04;101778.56;5060336;27;96720;-77
2023/06/22 01:38:08;;;;;;;1.95;0.80;;;;;;;31.08;36.22;101782.41;5058830;27;97814;-77
2023/06/22 01:40:36;;;;;;;0.93;0.70;;;;;;;31.08;36.36;101779.63;5059514;27;97276;-78
2023/06/22 01:43:03;;;;;;;0.73;0.68;;;;;;;31.09;36.14;101775.78;5057822;27;97081;-77
2023/06/22 01:45:30;;;;;;;0.75;0.70;;;;;;;31.08;36.16;101772.16;5058020;27;96770;-77
2023/06/22 01:47:57;;;;;;;1.27;0.73;;;;;;;31.09;36.32;101770.25;5057441;27;96821;-77
2023/06/22 01:50:24;;;;;;;1.10;0.80;;;;;;;31.09;36.42;101761.91;5058451;27;96734;-77
2023/06/22 01:52:51;;;;;;;1.05;0.80;;;;;;;31.08;35.79;101771.31;5058241;27;96723;-78
2023/06/22 01:55:18;;;;;;;1.98;0.80;;;;;;;31.08;36.14;101765.75;5039896;27;97090;-77
2023/06/22 01:57:49;;;;;;;1.20;0.70;;;;;;;31.08;36.35;101762.97;5053894;27;97548;-78
2023/06/22 02:00:22;;;;;;;0.90;0.70;;;;;;;31.09;36.40;101761.91;5049546;27;98333;-78
2023/06/22 02:03:01;;;;;;;1.23;0.90;;;;;;;31.08;36.10;101763.84;5047162;27;96965;-77
2023/06/22 02:05:34;;;;;;;1.88;0.88;;;;;;;31.07;36.50;101764.91;5054940;27;96904;-77
2023/06/22 02:08:22;;;;;;;0.73;0.73;;;;;;;31.07;36.19;101756.59;5054470;27;100044;-77
2023/06/22 02:10:51;;;;;;;1.13;0.80;;;;;;;31.06;36.12;101763.22;5045115;27;97602;-78
2023/06/22 02:13:20;;;;;;;1.33;0.80;;;;;;;31.06;36.30;101765.97;5039880;27;96701;-78
2023/06/22 02:15:47;;;;;;;1.02;0.85;;;;;;;31.07;36.16;101759.34;5054818;27;96917;-78
2023/06/22 02:18:14;;;;;;;1.60;0.80;;;;;;;31.06;36.06;101760.44;5053151;27;98769;-78
2023/06/22 02:20:40;;;;;;;1.05;0.80;;;;;;;31.06;36.62;101765.13;5055262;27;98751;-78
2023/06/22 02:23:07;;;;;;;1.00;0.90;;;;;;;31.07;36.05;101764.06;5048812;27;96704;-77
2023/06/22 02:25:35;;;;;;;0.85;0.70;;;;;;;31.06;36.48;101762.34;5054969;27;96748;-78
2023/06/22 02:28:02;;;;;;;1.48;0.85;;;;;;;31.06;36.39;101757.66;5056899;27;99579;-78
2023/06/22 02:30:29;;;;;;;1.92;0.90;;;;;;;31.07;36.28;101758.50;5055576;27;98704;-78
2023/06/22 02:32:59;;;;;;;0.80;0.70;;;;;;;31.06;36.25;101746.56;5058367;27;96785;-77
2023/06/22 02:35:31;;;;;;;1.15;0.70;;;;;;;31.06;36.09;101749.34;5058211;27;96804;-78
2023/06/22 02:38:00;;;;;;;1.00;0.90;;;;;;;31.06;36.42;101743.78;5056008;27;96779;-77
2023/06/22 02:40:26;;;;;;;0.80;0.70;;;;;;;31.06;36.22;101751.25;5055946;27;98375;-77
2023/06/22 02:42:57;;;;;;;1.08;0.80;;;;;;;31.05;36.07;101749.56;5055082;27;97106;-77
2023/06/22 02:45:24;;;;;;;0.90;0.80;;;;;;;31.04;36.45;101743.16;5054680;27;96950;-77
2023/06/22 02:47:51;;;;;;;1.08;0.98;;;;;;;31.05;36.21;101733.75;5053432;27;100884;-77
2023/06/22 02:50:18;;;;;;;0.88;0.80;;;;;;;31.05;36.25;101739.31;5057794;27;96573;-78
2023/06/22 02:52:45;;;;;;;1.52;1.20;;;;;;;31.05;36.28;101733.75;5053930;27;97290;-78
2023/06/22 02:55:12;;;;;;;1.15;0.70;;;;;;;31.05;36.26;101735.69;5055750;27;96842;-78
2023/06/22 02:57:43;;;;;;;1.00;0.90;;;;;;;31.06;36.18;101731.84;5050717;27;98934;-78
2023/06/22 03:00:16;;;;;;;1.10;0.80;;;;;;;31.04;36.12;101732.06;5037161;27;97648;-78
2023/06/22 03:02:46;;;;;;;0.90;0.70;;;;;;;31.04;36.31;101726.50;5054583;27;96875;-77
2023/06/22 03:05:14;;;;;;;0.85;0.70;;;;;;;31.04;36.37;101731.22;5051937;27;97025;-77
2023/06/22 03:07:41;;;;;;;0.82;0.73;;;;;;;31.04;36.18;101732.06;5056237;27;99707;-77
2023/06/22 03:10:10;;;;;;;1.02;0.70;;;;;;;31.04;36.24;101725.66;5035659;27;96867;-77
2023/06/22 03:12:40;;;;;;;0.77;0.77;;;;;;;31.05;36.12;101727.38;5037875;27;96826;-77
2023/06/22 03:15:09;;;;;;;0.95;0.80;;;;;;;31.03;36.23;101727.59;5031375;27;97030;-77
2023/06/22 03:17:38;;;;;;;0.85;0.80;;;;;;;31.03;36.25;101722.03;5050675;27;97645;-77
2023/06/22 03:20:09;;;;;;;1.27;0.88;;;;;;;31.03;36.32;101716.47;5047897;27;97983;-77
2023/06/22 03:22:40;;;;;;;0.80;0.70;;;;;;;31.04;36.13;101709.00;5051409;27;96836;-77
2023/06/22 03:25:13;;;;;;;0.70;0.65;;;;;;;31.02;36.19;101697.28;5028443;28;97956;-77
2023/06/22 03:27:43;;;;;;;0.65;0.65;;;;;;;31.02;36.24;101709.25;5053200;27;99178;-77
2023/06/22 03:30:11;;;;;;;0.95;0.85;;;;;;;31.02;36.37;101711.16;5032063;27;99378;-77
2023/06/22 03:32:38;;;;;;;1.00;0.80;;;;;;;31.03;36.31;101712.88;5048125;27;96882;-77
2023/06/22 03:35:06;;;;;;;0.88;0.80;;;;;;;31.02;36.38;101711.16;5055771;27;97018;-78
2023/06/22 03:37:35;;;;;;;0.85;0.70;;;;;;;31.02;36.41;101713.94;5055253;27;96789;-78
2023/06/22 03:40:05;;;;;;;1.10;1.00;;;;;;;31.01;36.26;101703.91;5056428;27;100248;-78
2023/06/22 03:42:36;;;;;;;1.20;0.90;;;;;;;31.01;36.38;101704.75;5059039;27;97279;-78
2023/06/22 03:45:04;;;;;;;1.17;1.00;;;;;;;31.00;36.50;101705.84;5060538;27;96809;-78
2023/06/22 03:47:31;;;;;;;1.05;0.80;;;;;;;31.01;36.09;101707.53;5059430;27;98201;-77
2023/06/22 03:49:58;;;;;;;0.77;0.70;;;;;;;31.01;36.13;101695.59;5041509;27;98795;-78
2023/06/22 03:52:25;;;;;;;1.13;0.77;;;;;;;31.00;36.28;101703.06;5059382;27;96617;-77
2023/06/22 03:54:51;;;;;;;1.20;0.90;;;;;;;31.01;36.02;101704.75;5059911;27;96806;-77
2023/06/22 03:57:18;;;;;;;1.02;0.88;;;;;;;31.00;36.30;101708.59;5057725;27;96860;-78
2023/06/22 03:59:45;;;;;;;0.98;0.80;;;;;;;30.99;36.26;101707.75;5050543;27;97521;-77
2023/06/22 04:02:11;;;;;;;0.80;0.70;;;;;;;31.00;36.17;101703.06;5055437;27;96815;-77
2023/06/22 04:04:39;;;;;;;1.15;1.00;;;;;;;30.99;36.24;101696.66;5058328;27;96966;-78
2023/06/22 04:07:06;;;;;;;0.90;0.80;;;;;;;30.99;36.08;101693.03;5037567;27;99378;-77
2023/06/22 04:09:32;;;;;;;1.17;0.80;;;;;;;31.00;36.32;101694.75;5056639;27;96695;-77
2023/06/22 04:11:59;;;;;;;1.25;1.10;;;;;;;30.99;36.32;101691.13;5037488;27;96743;-77
2023/06/22 04:14:25;;;;;;;1.70;1.30;;;;;;;30.99;36.00;101693.03;5056422;27;97906;-78
2023/06/22 04:16:52;;;;;;;1.33;0.95;;;;;;;30.99;36.04;101691.13;5036065;27;99467;-77
2023/06/22 04:19:18;;;;;;;0.95;0.90;;;;;;;30.98;36.31;101683.88;5057527;27;96592;-78
2023/06/22 04:21:47;;;;;;;0.98;0.73;;;;;;;30.98;35.94;101681.09;5055286;27;96703;-78
2023/06/22 04:24:13;;;;;;;1.10;1.00;;;;;;;30.99;36.17;101691.13;5057685;27;96953;-77
2023/06/22 04:26:42;;;;;;;1.00;0.77;;;;;;;30.98;36.11;101697.72;5056948;27;98258;-77
2023/06/22 04:29:08;;;;;;;1.00;0.77;;;;;;;30.98;36.33;101683.88;5058640;27;96543;-78
2023/06/22 04:31:38;;;;;;;1.15;0.90;;;;;;;30.99;36.09;101690.25;5059192;27;96602;-78
2023/06/22 04:34:06;;;;;;;1.10;0.88;;;;;;;30.98;36.32;101692.19;5057877;27;97224;-78
2023/06/22 04:36:38;;;;;;;1.00;0.90;;;;;;;30.97;36.37;101693.25;5058697;27;96630;-77
2023/06/22 04:39:12;;;;;;;0.80;0.70;;;;;;;30.97;36.36;101696.03;5057125;27;98819;-78
2023/06/22 04:41:42;;;;;;;0.80;0.73;;;;;;;30.97;36.36;101679.38;5060362;27;96827;-78
2023/06/22 04:44:10;;;;;;;1.13;0.82;;;;;;;30.96;36.17;101680.47;5042287;27;97415;-77
2023/06/22 04:46:38;;;;;;;1.20;1.00;;;;;;;30.97;36.31;101681.31;5061821;27;97067;-78
2023/06/22 04:49:09;;;;;;;1.10;0.90;;;;;;;30.97;36.11;101676.63;5057993;27;97875;-77
2023/06/22 04:51:41;;;;;;;1.42;1.10;;;;;;;30.96;36.44;101677.69;5060293;27;97368;-78
2023/06/22 04:54:09;;;;;;;1.00;0.88;;;;;;;30.97;36.42;101678.53;5040749;27;96774;-78
2023/06/22 04:56:36;;;;;;;0.82;0.80;;;;;;;30.96;36.15;101679.63;5025109;28;99409;-78
2023/06/22 04:59:03;;;;;;;1.08;0.80;;;;;;;30.97;36.08;101684.09;5039204;27;97420;-78
2023/06/22 05:01:31;;;;;;;1.25;0.88;;;;;;;30.96;36.28;101683.25;5054959;27;97194;-77
2023/06/22 05:04:00;;;;;;;1.75;1.05;;;;;;;30.96;36.51;101691.56;5041793;27;97262;-77
2023/06/22 05:06:28;;;;;;;1.02;0.80;;;;;;;30.97;36.42;101689.63;5043818;27;97099;-78
2023/06/22 05:08:58;;;;;;;1.15;0.90;;;;;;;30.96;36.26;101694.34;5034491;27;97914;-78
2023/06/22 05:11:28;;;;;;;1.20;1.00;;;;;;;30.96;36.51;101680.47;5044386;27;96727;-78
2023/06/22 05:13:55;;;;;;;1.17;1.00;;;;;;;30.97;36.46;101689.63;5052683;27;98448;-77
2023/06/22 05:16:24;;;;;;;1.25;1.08;;;;;;;30.96;36.27;101688.78;5041130;27;97564;-77
2023/06/22 05:18:54;;;;;;;1.40;0.90;;;;;;;30.96;36.51;101688.78;5019727;28;99534;-77
2023/06/22 05:21:24;;;;;;;2.35;1.05;;;;;;;30.96;36.30;101685.16;5044301;27;96904;-77
2023/06/22 05:23:51;;;;;;;1.27;1.00;;;;;;;30.96;36.26;101694.34;5037209;27;97129;-78
2023/06/22 05:26:19;;;;;;;1.08;0.90;;;;;;;30.96;36.29;101690.72;5043170;27;99639;-77
2023/06/22 05:28:47;;;;;;;1.08;0.98;;;;;;;30.95;36.38;101687.09;5052498;27;97108;-78
2023/06/22 05:31:15;;;;;;;1.10;1.00;;;;;;;30.95;36.20;101695.41;5051647;27;96876;-77
2023/06/22 05:33:43;;;;;;;1.00;0.90;;;;;;;30.96;36.29;101699.88;5040859;27;96855;-77
2023/06/22 05:36:12;;;;;;;1.30;1.00;;;;;;;30.96;36.42;101701.81;5035076;27;100106;-77
2023/06/22 05:38:40;;;;;;;1.30;1.05;;;;;;;30.95;36.04;101703.72;5045979;27;97370;-77
2023/06/22 05:41:07;;;;;;;1.08;0.93;;;;;;;30.96;36.34;101705.44;5036320;27;96875;-77
2023/06/22 05:43:34;;;;;;;1.38;1.00;;;;;;;30.95;36.40;101709.28;5034100;27;96826;-78
2023/06/22 05:46:01;;;;;;;1.40;0.80;;;;;;;30.96;36.44;101708.22;5044030;27;96788;-77
2023/06/22 05:48:28;;;;;;;1.05;0.95;;;;;;;30.96;36.16;101696.25;5046869;27;96676;-78
2023/06/22 05:50:55;;;;;;;1.17;1.00;;;;;;;30.95;36.11;101698.19;5047389;27;96601;-77
2023/06/22 05:53:22;;;;;;;1.17;0.90;;;;;;;30.97;36.50;101695.19;5051564;27;97150;-77
2023/06/22 05:55:48;;;;;;;1.73;1.17;;;;;;;30.95;36.37;101695.41;5052140;27;97182;-77
2023/06/22 05:58:15;;;;;;;1.00;0.90;;;;;;;30.96;36.43;101699.88;5031502;27;97038;-78
2023/06/22 06:00:43;;;;;;;1.20;1.10;;;;;;;30.95;36.44;101698.19;5032390;27;96757;-77
2023/06/22 06:03:10;;;;;;;1.80;1.38;;;;;;;30.97;36.14;101703.50;5034389;27;96768;-77
2023/06/22 06:05:40;;;;;;;1.42;1.13;;;;;;;30.95;36.34;101700.97;5048848;27;99168;-76
2023/06/22 06:08:07;;;;;;;1.48;1.20;;;;;;;30.95;36.29;101709.28;5043554;27;97347;-77
2023/06/22 06:10:35;;;;;;;1.30;1.20;;;;;;;30.95;36.42;101706.50;5045494;27;97178;-79
2023/06/22 06:13:02;;;;;;;1.20;1.10;;;;;;;30.95;36.32;101700.97;5044439;27;96701;-76
2023/06/22 06:15:51;;;;;;;1.33;1.23;;;;;;;30.96;36.33;101699.88;5044792;27;98718;-76
2023/06/22 06:18:21;;;;;;;1.85;1.20;;;;;;;30.94;36.12;101693.72;5020342;27;98388;-76
2023/06/22 06:20:47;;;;;;;2.13;1.45;;;;;;;30.94;36.30;101693.72;5046308;27;96912;-76
2023/06/22 06:23:14;;;;;;;1.88;1.13;;;;;;;30.94;36.40;101685.38;5037431;27;96788;-77
2023/06/22 06:25:41;;;;;;;1.67;1.20;;;;;;;30.95;36.23;101697.34;5035397;27;97142;-76
2023/06/22 06:28:07;;;;;;;1.38;1.25;;;;;;;30.95;36.61;101689.00;5031395;27;97430;-77
2023/06/22 06:30:36;;;;;;;1.48;1.20;;;;;;;30.95;36.27;101683.47;5031237;27;96730;-77
2023/06/22 06:33:08;;;;;;;1.50;1.30;;;;;;;30.94;36.47;101690.94;5031316;27;96715;-76
2023/06/22 06:35:35;;;;;;;1.40;1.30;;;;;;;30.95;36.26;101683.47;5030009;27;100559;-77
2023/06/22 06:38:02;;;;;;;1.95;1.40;;;;;;;30.95;36.10;101687.09;5036014;27;97735;-76
2023/06/22 06:40:29;;;;;;;1.77;1.20;;;;;;;30.95;36.39;101687.09;5047474;27;96911;-76
2023/06/22 06:42:57;;;;;;;1.52;1.30;;;;;;;30.96;36.30;101685.16;5048432;27;98779;-76
2023/06/22 06:45:24;;;;;;;1.85;1.40;;;;;;;30.96;36.24;101682.38;5038273;27;97884;-76
2023/06/22 06:47:52;;;;;;;1.75;1.63;;;;;;;30.97;36.49;101684.09;5048484;27;97404;-76
2023/06/22 06:50:19;;;;;;;2.00;1.42;;;;;;;30.95;36.28;101684.31;5038072;27;98122;-76
2023/06/22 06:52:46;;;;;;;3.42;1.52;;;;;;;30.95;36.49;101678.75;5042370;27;97017;-76
2023/06/22 06:55:13;;;;;;;2.25;1.42;;;;;;;30.95;36.67;101683.47;5048477;27;97629;-76
2023/06/22 06:57:41;;;;;;;2.35;1.35;;;;;;;30.95;36.50;101678.75;5039304;27;97392;-76
2023/06/22 07:00:14;;;;;;;1.75;1.50;;;;;;;30.96;36.54;101679.63;5031805;27;96970;-76
2023/06/22 07:02:43;;;;;;;1.60;1.45;;;;;;;30.95;36.46;101676.00;5044986;27;97271;-76
2023/06/22 07:05:11;;;;;;;1.58;1.33;;;;;;;30.94;36.62;101671.50;5037019;27;96792;-76
2023/06/22 07:07:38;;;;;;;2.13;1.58;;;;;;;30.95;36.13;101669.59;5046785;27;96730;-76
2023/06/22 07:10:06;;;;;;;2.22;1.60;;;;;;;30.96;36.39;101668.53;5045489;27;96697;-76
2023/06/22 07:12:33;;;;;;;2.00;1.67;;;;;;;30.95;36.51;101666.81;5040472;27;96789;-76
2023/06/22 07:15:05;;;;;;;2.83;1.77;;;;;;;30.96;36.57;101663.81;5050012;27;97205;-76
2023/06/22 07:17:31;;;;;;;2.67;1.90;;;;;;;30.95;36.56;101661.28;5047010;27;97348;-76
2023/06/22 07:19:58;;;;;;;1.90;1.70;;;;;;;30.94;36.56;101656.78;5050410;27;96752;-76
2023/06/22 07:22:25;;;;;;;2.67;1.70;;;;;;;30.95;36.68;101656.56;5050413;27;96776;-76
2023/06/22 07:24:51;;;;;;;2.28;1.75;;;;;;;30.95;36.55;101655.72;5048997;27;96845;-76
2023/06/22 07:27:19;;;;;;;1.88;1.52;;;;;;;30.94;36.71;101649.31;5049373;27;98074;-76
2023/06/22 07:29:46;;;;;;;2.85;1.77;;;;;;;30.94;36.78;101648.47;5032906;27;96644;-76
2023/06/22 07:32:13;;;;;;;1.80;1.50;;;;;;;30.94;36.46;101649.31;5049713;27;97227;-76
2023/06/22 07:34:39;;;;;;;1.60;1.50;;;;;;;30.94;36.49;101649.31;5043483;27;97521;-76
2023/06/22 07:37:06;;;;;;;1.70;1.60;;;;;;;30.95;36.49;101644.63;5028710;27;97775;-76
2023/06/22 07:39:32;;;;;;;3.40;1.63;;;;;;;30.94;36.61;101649.31;5045715;27;96919;-77
2023/06/22 07:41:59;;;;;;;1.83;1.67;;;;;;;30.94;36.78;101652.09;5043171;27;96622;-76
2023/06/22 07:44:25;;;;;;;2.40;1.70;;;;;;;30.94;36.66;101652.09;5047275;27;99412;-76
2023/06/22 07:46:52;;;;;;;2.00;1.83;;;;;;;30.94;36.69;101646.56;5047346;27;98572;-76
2023/06/22 07:49:18;;;;;;;2.13;1.92;;;;;;;30.95;36.71;101652.94;5042560;27;96797;-76
2023/06/22 07:51:45;;;;;;;2.83;1.90;;;;;;;30.94;36.58;101649.31;5046322;27;96684;-76
2023/06/22 07:54:11;;;;;;;2.20;2.00;;;;;;;30.94;36.43;101641.00;5041990;27;97720;-76
2023/06/22 07:56:38;;;;;;;2.20;1.52;;;;;;;30.94;36.56;101646.56;5046595;27;97433;-76
2023/06/22 07:59:04;;;;;;;2.13;1.60;;;;;;;30.94;36.54;101637.38;5041283;27;96861;-76
2023/06/22 08:01:31;;;;;;;2.33;1.95;;;;;;;30.94;36.74;101629.91;5045087;27;96872;-76
2023/06/22 08:03:58;;;;;;;2.25;1.80;;;;;;;30.95;36.43;101623.28;5058372;27;99138;-77
2023/06/22 08:06:24;;;;;;;1.80;1.70;;;;;;;30.95;36.82;101608.56;5046197;27;97890;-76
2023/06/22 08:08:52;;;;;;;3.25;1.90;;;;;;;30.95;36.85;101597.47;5041087;27;96830;-75
2023/06/22 08:11:19;;;;;;;2.60;1.95;;;;;;;30.94;36.52;101593.84;5036921;27;96701;-75
2023/06/22 08:13:46;;;;;;;2.40;2.13;;;;;;;30.94;36.69;101599.38;5045732;27;96767;-76
2023/06/22 08:16:12;;;;;;;2.00;1.77;;;;;;;30.94;36.82;101593.84;5050707;27;97876;-78
2023/06/22 08:18:39;;;;;;;1.90;1.70;;;;;;;30.94;36.57;101593.84;5051985;27;97961;-76
2023/06/22 08:21:05;;;;;;;2.42;1.88;;;;;;;30.94;36.66;101590.22;5052571;27;97299;-77
2023/06/22 08:23:32;;;;;;;2.20;1.70;;;;;;;30.94;36.62;101582.75;5052209;27;96763;-76
2023/06/22 08:25:59;;;;;;;2.72;1.80;;;;;;;30.94;36.78;101591.06;5035157;27;99264;-77
2023/06/22 08:28:25;;;;;;;2.58;2.08;;;;;;;30.95;36.83;101584.44;5053946;27;96856;-78
2023/06/22 08:30:52;;;;;;;2.78;2.10;;;;;;;30.94;36.80;101582.75;5043162;27;96873;-78
2023/06/22 08:33:18;;;;;;;2.95;2.03;;;;;;;30.94;37.05;101574.44;5044533;27;96967;-78
2023/06/22 08:35:58;;;;;;;2.17;1.95;;;;;;;30.94;36.73;101571.66;5033692;27;98255;-77
2023/06/22 08:38:25;;;;;;;2.42;2.20;;;;;;;30.94;36.72;101576.34;5042361;27;96655;-77
2023/06/22 08:40:51;;;;;;;2.63;1.90;;;;;;;30.94;36.82;101568.03;5042461;27;97017;-77
2023/06/22 08:43:18;;;;;;;2.67;1.88;;;;;;;30.94;37.16;101579.97;5048838;27;99243;-77
2023/06/22 08:45:45;;;;;;;3.22;2.05;;;;;;;30.94;36.88;101570.81;5035481;27;97287;-77
2023/06/22 08:48:12;;;;;;;3.50;2.28;;;;;;;30.95;37.21;101562.25;5034983;27;98422;-77
2023/06/22 08:50:40;;;;;;;3.30;2.38;;;;;;;30.96;37.28;101561.19;5034139;27;96867;-77
2023/06/22 08:53:07;;;;;;;4.47;2.42;;;;;;;30.95;37.12;101559.47;5041422;27;97289;-77
2023/06/22 08:55:34;;;;;;;3.38;2.55;;;;;;;30.96;37.40;101560.31;5050710;27;96686;-77
2023/06/22 08:58:00;;;;;;;4.00;2.58;;;;;;;30.96;37.61;101561.19;5019006;28;98322;-77
2023/06/22 09:00:29;;;;;;;3.33;2.63;;;;;;;30.97;37.61;101557.31;5037974;27;98312;-77
2023/06/22 09:02:58;;;;;;;4.25;2.50;;;;;;;30.96;37.61;101558.41;5033631;27;97608;-77
2023/06/22 09:05:28;;;;;;;3.90;2.58;;;;;;;30.97;37.69;101542.59;5034416;27;97094;-77
2023/06/22 09:08:09;;;;;;;2.92;2.30;;;;;;;30.97;37.67;101543.47;5036947;27;96825;-78
2023/06/22 09:10:45;;;;;;;3.88;2.47;;;;;;;30.96;37.60;101546.47;5027379;27;96981;-77
2023/06/22 09:13:11;;;;;;;3.55;2.45;;;;;;;30.96;37.75;101552.84;5036361;27;96872;-77
2023/06/22 09:15:38;;;;;;;3.83;2.53;;;;;;;30.96;38.05;101547.31;5049670;27;96821;-77
2023/06/22 09:18:05;;;;;;;3.58;2.78;;;;;;;30.96;37.89;101544.53;5045396;27;96644;-77
2023/06/22 09:20:31;;;;;;;3.60;2.20;;;;;;;30.96;37.84;101547.31;5052846;27;97324;-77
2023/06/22 09:22:58;;;;;;;3.92;2.55;;;;;;;30.96;38.22;101550.09;5041277;27;96976;-77
2023/06/22 09:25:24;;;;;;;3.55;2.17;;;;;;;30.97;37.95;101548.16;5039852;27;98933;-77
2023/06/22 09:27:51;;;;;;;3.58;2.33;;;;;;;30.96;38.31;101547.31;5053130;27;96732;-77
2023/06/22 09:30:17;;;;;;;3.80;2.60;;;;;;;30.96;38.17;101541.75;5051398;27;96809;-77
2023/06/22 09:32:44;;;;;;;2.53;2.33;;;;;;;30.96;38.01;101536.22;5040324;27;96658;-77
2023/06/22 09:35:13;;;;;;;4.05;2.50;;;;;;;30.96;37.97;101547.31;5037143;27;96609;-77
2023/06/22 09:37:40;;;;;;;4.72;2.60;;;;;;;30.96;37.85;101547.31;5040077;27;96549;-77
2023/06/22 09:40:09;;;;;;;2.80;2.25;;;;;;;30.96;38.18;101544.53;5037860;27;96716;-77
2023/06/22 09:42:36;;;;;;;3.05;2.50;;;;;;;30.96;38.11;101543.69;5051478;27;96908;-77
2023/06/22 09:45:03;;;;;;;2.38;2.15;;;;;;;30.95;38.07;101547.53;5031869;27;97288;-76
2023/06/22 09:47:30;;;;;;;3.22;2.33;;;;;;;30.95;38.19;101544.75;5033347;27;96699;-77
2023/06/22 09:49:59;;;;;;;3.88;2.33;;;;;;;30.94;38.15;101546.69;5042616;27;97235;-77
2023/06/22 09:52:26;;;;;;;2.75;2.45;;;;;;;30.95;38.09;101544.75;5059190;27;97023;-77
2023/06/22 09:55:08;;;;;;;3.42;2.50;;;;;;;30.94;38.07;101541.13;5037039;27;97687;-78
2023/06/22 09:57:35;;;;;;;4.80;2.92;;;;;;;30.94;38.18;101543.91;5042226;27;96802;-79
2023/06/22 10:00:05;;;;;;;4.60;3.08;;;;;;;30.95;37.98;101533.66;5052095;27;96871;-78
2023/06/22 10:02:32;;;;;;;3.63;2.85;;;;;;;30.95;38.14;101542.00;5049497;27;96907;-78
2023/06/22 10:04:59;;;;;;;3.17;2.88;;;;;;;30.94;37.93;101537.50;5052931;27;97317;-78
2023/06/22 10:07:26;;;;;;;3.30;2.78;;;;;;;30.94;38.13;101538.38;5051214;27;96843;-76
2023/06/22 10:09:52;;;;;;;3.53;2.70;;;;;;;30.94;38.07;101538.38;5039166;27;97081;-77
2023/06/22 10:12:19;;;;;;;4.65;2.65;;;;;;;30.94;38.13;101543.06;5048592;27;96691;-77
2023/06/22 10:14:45;;;;;;;4.13;2.88;;;;;;;30.94;38.37;101537.50;5043765;27;97910;-77
2023/06/22 10:17:12;;;;;;;3.40;2.92;;;;;;;30.94;37.97;101540.28;5023285;27;96958;-77
2023/06/22 10:19:41;;;;;;;4.47;3.20;;;;;;;30.93;38.07;101536.66;5036124;27;96779;-77
2023/06/22 10:22:07;;;;;;;4.15;3.08;;;;;;;30.93;37.98;101531.13;5049100;27;97934;-77
2023/06/22 10:24:34;;;;;;;3.53;2.92;;;;;;;30.93;38.21;101528.34;5040488;27;97486;-77
2023/06/22 10:27:01;;;;;;;3.35;2.90;;;;;;;30.93;37.97;101520.03;5049216;27;97370;-77
2023/06/22 10:29:27;;;;;;;3.60;3.00;;;;;;;30.93;38.27;101521.94;5038710;27;97007;-77
2023/06/22 10:31:54;;;;;;;3.63;3.03;;;;;;;30.94;37.95;101515.31;5045779;27;97196;-78
2023/06/22 10:34:20;;;;;;;5.15;2.92;;;;;;;30.93;38.08;101508.06;5045379;27;98637;-78
2023/06/22 10:36:48;;;;;;;4.00;3.20;;;;;;;30.93;38.26;101508.06;5043421;27;97083;-78
2023/06/22 10:39:15;;;;;;;3.97;2.60;;;;;;;30.93;37.97;101508.06;5034564;27;97090;-78
2023/06/22 10:41:42;;;;;;;5.03;3.15;;;;;;;30.93;38.03;101510.84;5036160;27;97825;-78
2023/06/22 10:44:09;;;;;;;3.13;2.83;;;;;;;30.93;37.93;101502.53;5035214;27;99170;-78
2023/06/22 10:46:35;;;;;;;3.47;2.90;;;;;;;30.93;38.12;101508.94;5045853;27;96718;-79
2023/06/22 10:49:02;;;;;;;4.60;2.72;;;;;;;30.93;37.89;101517.25;5037438;27;96816;-78
2023/06/22 10:51:28;;;;;;;3.35;2.78;;;;;;;30.92;37.99;101510.00;5037092;27;96823;-78
2023/06/22 10:53:55;;;;;;;3.45;2.85;;;;;;;30.92;38.18;101504.47;5032950;27;99429;-77
2023/06/22 10:56:21;;;;;;;3.22;2.67;;;;;;;30.92;37.99;101512.78;5035849;27;96786;-77
2023/06/22 10:58:48;;;;;;;3.75;2.97;;;;;;;30.93;37.63;101513.63;5033725;27;96845;-76
2023/06/22 11:01:14;;;;;;;3.13;2.83;;;;;;;30.92;37.96;101523.03;5034148;27;98197;-76
2023/06/22 11:04:01;;;;;;;3.75;2.88;;;;;;;30.91;37.85;101536.03;5034603;27;97282;-77
2023/06/22 11:06:28;;;;;;;3.58;2.60;;;;;;;30.91;38.19;101544.38;5031888;27;96597;-77
2023/06/22 11:08:54;;;;;;;4.18;2.88;;;;;;;30.91;37.97;101555.47;5034916;27;96758;-77
2023/06/22 11:11:32;;;;;;;3.40;2.80;;;;;;;30.91;38.13;101557.38;5032911;27;96740;-77
2023/06/22 11:13:59;;;;;;;3.45;2.90;;;;;;;30.90;38.08;101559.31;5032891;27;96638;-77
2023/06/22 11:16:26;;;;;;;5.53;3.10;;;;;;;30.91;37.80;101563.78;5047550;27;97450;-77
2023/06/22 11:18:52;;;;;;;2.95;2.65;;;;;;;30.91;38.01;101569.31;5043383;27;96677;-77
2023/06/22 11:21:19;;;;;;;3.95;2.90;;;;;;;30.91;38.05;101568.47;5039654;27;98237;-77
2023/06/22 11:23:45;;;;;;;4.60;2.85;;;;;;;30.90;38.17;101564.84;5049230;27;97409;-77
2023/06/22 11:26:12;;;;;;;3.17;2.63;;;;;;;30.90;37.98;101570.41;5044664;27;96920;-77
2023/06/22 11:28:39;;;;;;;3.00;2.55;;;;;;;30.90;37.80;101570.41;5045831;27;96814;-77
2023/06/22 11:31:07;;;;;;;3.03;2.72;;;;;;;30.90;37.92;101581.50;5042909;27;98067;-77